createdAt,value
2022-08-25T00:01:57.129Z,73.76
2022-08-25T00:04:24.797Z,73.84
2022-08-25T00:06:53.679Z,74.04
2022-08-25T00:09:22.807Z,74.25
2022-08-25T00:11:50.319Z,74.59
2022-08-25T00:14:23.307Z,74.62
2022-08-25T00:16:50.852Z,74.27
2022-08-25T00:19:26.403Z,74.70
2022-08-25T00:21:53.980Z,75.30
2022-08-25T00:24:21.465Z,75.32
2022-08-25T00:26:50.383Z,76.08
2022-08-25T00:29:17.994Z,76.08
2022-08-25T00:31:45.749Z,76.69
2022-08-25T00:34:15.908Z,76.15
2022-08-25T00:36:43.615Z,76.38
2022-08-25T00:39:11.243Z,76.45
2022-08-25T00:41:39.829Z,76.38
2022-08-25T00:44:07.994Z,76.51
2022-08-25T00:46:41.444Z,77.23
2022-08-25T00:49:33.911Z,77.01
2022-08-25T00:52:22.571Z,77.09
2022-08-25T00:54:53.043Z,77.20
2022-08-25T00:57:34.174Z,77.21
2022-08-25T01:00:07.646Z,76.66
2022-08-25T01:02:35.122Z,76.76
2022-08-25T01:05:02.833Z,76.87
2022-08-25T01:07:30.183Z,76.74
2022-08-25T01:09:57.431Z,76.74
2022-08-25T01:12:24.772Z,77.12
2022-08-25T01:14:52.066Z,77.12
2022-08-25T01:17:20.718Z,76.39
2022-08-25T01:19:48.007Z,76.12
2022-08-25T01:22:17.424Z,76.43
2022-08-25T01:24:53.481Z,76.54
2022-08-25T01:27:20.866Z,76.10
2022-08-25T01:29:48.120Z,76.41
2022-08-25T01:32:15.807Z,76.21
2022-08-25T01:34:44.689Z,76.60
2022-08-25T01:37:13.710Z,76.26
2022-08-25T01:39:41.121Z,75.66
2022-08-25T01:42:11.661Z,75.83
2022-08-25T01:44:43.740Z,76.06
2022-08-25T01:47:11.318Z,75.92
2022-08-25T01:49:38.571Z,75.53
2022-08-25T01:52:33.782Z,75.77
2022-08-25T01:55:01.194Z,75.19
2022-08-25T01:57:31.299Z,75.56
2022-08-25T01:59:59.160Z,76.40
2022-08-25T02:02:26.567Z,76.10
2022-08-25T02:04:53.957Z,76.54
2022-08-25T02:07:22.388Z,76.75
2022-08-25T02:09:49.761Z,76.80
2022-08-25T02:12:17.312Z,76.95
2022-08-25T02:14:44.636Z,76.96
2022-08-25T02:17:11.944Z,77.43
2022-08-25T02:19:39.340Z,77.32
2022-08-25T02:22:06.686Z,77.45
2022-08-25T02:24:35.048Z,77.06
2022-08-25T02:27:04.162Z,77.32
2022-08-25T02:29:31.646Z,77.42
2022-08-25T02:31:59.036Z,77.14
2022-08-25T02:34:26.447Z,77.34
2022-08-25T02:36:53.763Z,77.54
2022-08-25T02:39:21.150Z,76.95
2022-08-25T02:41:48.452Z,77.21
2022-08-25T02:44:16.141Z,77.39
2022-08-25T02:46:43.408Z,77.52
2022-08-25T02:49:10.821Z,77.87
2022-08-25T02:51:38.123Z,77.68
2022-08-25T02:54:05.953Z,77.88
2022-08-25T02:56:33.334Z,77.74
2022-08-25T02:59:01.329Z,77.45
2022-08-25T03:01:29.305Z,78.00
2022-08-25T03:03:57.033Z,78.77
2022-08-25T03:06:24.549Z,78.52
2022-08-25T03:08:52.275Z,78.62
2022-08-25T03:11:19.640Z,78.80
2022-08-25T03:13:47.101Z,78.88
2022-08-25T03:16:14.585Z,79.19
2022-08-25T03:18:42.227Z,79.28
2022-08-25T03:21:11.663Z,79.26
2022-08-25T03:23:39.926Z,79.48
2022-08-25T03:26:30.502Z,79.83
2022-08-25T03:28:57.889Z,80.24
2022-08-25T03:31:26.998Z,80.64
2022-08-25T03:33:54.539Z,80.67
2022-08-25T03:36:21.811Z,81.01
2022-08-25T03:38:49.292Z,80.67
2022-08-25T03:41:19.106Z,80.85
2022-08-25T03:43:48.282Z,80.99
2022-08-25T03:46:19.474Z,80.67
2022-08-25T03:48:47.019Z,80.93
2022-08-25T03:51:26.184Z,81.00
2022-08-25T03:53:53.601Z,80.87
2022-08-25T03:56:20.883Z,80.85
2022-08-25T03:58:48.313Z,80.84
2022-08-25T04:01:16.718Z,80.48
2022-08-25T04:03:46.076Z,80.12
2022-08-25T04:06:13.478Z,79.96
2022-08-25T04:08:40.870Z,80.18
2022-08-25T04:11:13.331Z,80.69
2022-08-25T04:13:42.499Z,80.94
2022-08-25T04:16:14.390Z,81.15
2022-08-25T04:18:42.390Z,80.83
2022-08-25T04:21:10.656Z,80.88
2022-08-25T04:23:38.995Z,81.25
2022-08-25T04:26:29.206Z,81.22
2022-08-25T04:28:57.420Z,81.05
2022-08-25T04:31:24.911Z,81.12
2022-08-25T04:33:52.389Z,81.37
2022-08-25T04:36:20.016Z,81.21
2022-08-25T04:38:47.633Z,81.20
2022-08-25T04:41:16.047Z,81.06
2022-08-25T04:43:44.139Z,81.27
2022-08-25T04:46:23.753Z,81.24
2022-08-25T04:48:52.200Z,81.42
2022-08-25T04:51:23.516Z,80.94
2022-08-25T04:53:50.996Z,80.73
2022-08-25T04:56:21.283Z,80.64
2022-08-25T04:58:48.711Z,80.61
2022-08-25T05:01:18.201Z,80.50
2022-08-25T05:03:46.868Z,80.49
2022-08-25T05:06:16.282Z,80.56
2022-08-25T05:08:45.888Z,80.75
2022-08-25T05:11:14.982Z,80.96
2022-08-25T05:13:43.365Z,80.85
2022-08-25T05:16:11.492Z,80.80
2022-08-25T05:18:39.027Z,80.94
2022-08-25T05:21:11.476Z,81.03
2022-08-25T05:23:38.985Z,80.97
2022-08-25T05:26:20.299Z,80.76
2022-08-25T05:28:49.867Z,81.12
2022-08-25T05:31:17.285Z,81.39
2022-08-25T05:33:44.658Z,80.90
2022-08-25T05:36:12.966Z,81.19
2022-08-25T05:38:41.152Z,81.22
2022-08-25T05:41:10.720Z,81.39
2022-08-25T05:43:39.019Z,81.48
2022-08-25T05:46:06.735Z,81.30
2022-08-25T05:48:34.177Z,81.08
2022-08-25T05:51:02.709Z,80.74
2022-08-25T05:53:31.093Z,80.40
2022-08-25T05:56:01.918Z,80.47
2022-08-25T05:58:29.470Z,80.25
2022-08-25T06:00:57.336Z,79.91
2022-08-25T06:03:24.723Z,80.14
2022-08-25T06:05:52.201Z,79.99
2022-08-25T06:08:20.056Z,80.53
2022-08-25T06:10:52.655Z,80.46
2022-08-25T06:13:26.874Z,80.91
2022-08-25T06:16:00.240Z,80.65
2022-08-25T06:18:27.639Z,80.65
2022-08-25T06:20:54.918Z,80.55
2022-08-25T06:23:22.340Z,80.45
2022-08-25T06:25:51.125Z,80.61
2022-08-25T06:28:19.520Z,80.21
2022-08-25T06:30:47.844Z,79.03
2022-08-25T06:33:15.712Z,77.78
2022-08-25T06:35:43.632Z,76.90
2022-08-25T06:38:12.033Z,77.00
2022-08-25T06:40:39.705Z,76.53
2022-08-25T06:43:09.059Z,76.31
2022-08-25T06:45:36.353Z,76.01
2022-08-25T06:48:03.918Z,76.51
2022-08-25T06:50:31.471Z,76.80
2022-08-25T06:52:58.872Z,76.11
2022-08-25T06:55:26.232Z,75.19
2022-08-25T06:57:55.108Z,75.60
2022-08-25T07:00:23.221Z,75.76
2022-08-25T07:02:59.187Z,76.83
2022-08-25T07:05:40.891Z,77.13
2022-08-25T07:08:12.101Z,77.45
2022-08-25T07:10:39.840Z,77.74
2022-08-25T07:13:07.272Z,77.68
2022-08-25T07:15:38.744Z,78.46
2022-08-25T07:18:07.849Z,78.43
2022-08-25T07:20:35.895Z,78.61
2022-08-25T07:23:04.604Z,77.64
2022-08-25T07:25:34.989Z,76.83
2022-08-25T07:28:02.475Z,75.97
2022-08-25T07:30:30.046Z,75.05
2022-08-25T07:32:57.536Z,75.21
2022-08-25T07:35:27.453Z,74.96
2022-08-25T07:38:06.752Z,73.42
2022-08-25T07:40:38.238Z,72.59
2022-08-25T07:43:10.770Z,72.32
2022-08-25T07:45:43.150Z,72.49
2022-08-25T07:48:17.774Z,72.86
2022-08-25T07:50:46.699Z,73.20
2022-08-25T07:53:15.065Z,73.21
2022-08-25T07:55:45.096Z,72.89
2022-08-25T07:58:13.070Z,72.89
2022-08-25T08:00:42.390Z,72.26
2022-08-25T08:03:19.935Z,72.71
2022-08-25T08:05:58.231Z,72.27
2022-08-25T08:08:25.569Z,72.24
2022-08-25T08:11:04.053Z,70.84
2022-08-25T08:13:37.917Z,66.78
2022-08-25T08:16:11.893Z,64.07
2022-08-25T08:18:43.166Z,61.41
2022-08-25T08:21:19.180Z,63.26
2022-08-25T08:23:49.199Z,65.91
2022-08-25T08:26:20.608Z,68.05
2022-08-25T08:28:52.159Z,68.11
2022-08-25T08:31:21.519Z,68.04
2022-08-25T08:33:50.297Z,67.37
2022-08-25T08:36:18.939Z,66.11
2022-08-25T08:38:49.041Z,65.05
2022-08-25T08:44:35.349Z,60.17
2022-08-25T08:47:19.172Z,61.70
2022-08-25T08:49:58.703Z,62.85
2022-08-25T08:53:01.384Z,61.64
2022-08-25T08:55:54.129Z,61.50
2022-08-25T08:58:24.107Z,62.14
2022-08-25T09:00:55.866Z,61.76
2022-08-25T09:03:40.790Z,63.06
2022-08-25T09:06:23.285Z,64.45
2022-08-25T09:08:51.587Z,64.79
2022-08-25T09:11:23.785Z,63.64
2022-08-25T09:14:18.547Z,62.30
2022-08-25T09:17:19.519Z,62.30
2022-08-25T09:19:52.891Z,62.96
2022-08-25T09:22:40.281Z,62.01
2022-08-25T09:25:08.913Z,61.09
2022-08-25T09:27:58.099Z,61.58
2022-08-25T09:30:27.026Z,63.66
2022-08-25T09:33:02.236Z,63.33
2022-08-25T09:35:34.705Z,62.93
2022-08-25T09:38:07.568Z,62.43
2022-08-25T09:40:40.904Z,62.61
2022-08-25T09:43:41.388Z,63.04
2022-08-25T09:46:08.857Z,63.72
2022-08-25T09:48:43.424Z,62.96
2022-08-25T09:51:21.390Z,60.62
2022-08-25T09:53:53.808Z,60.49
2022-08-25T09:56:22.653Z,58.69
2022-08-25T09:58:50.341Z,58.08
2022-08-25T10:01:22.349Z,58.02
2022-08-25T10:04:04.348Z,57.78
2022-08-25T10:06:45.407Z,57.09
2022-08-25T10:09:22.326Z,57.24
2022-08-25T10:11:49.721Z,57.51
2022-08-25T10:14:19.572Z,57.73
2022-08-25T10:16:48.107Z,59.99
2022-08-25T10:19:21.974Z,60.72
2022-08-25T10:22:10.936Z,59.33
2022-08-25T10:24:41.009Z,57.94
2022-08-25T10:27:29.968Z,56.76
2022-08-25T10:30:26.011Z,57.05
2022-08-25T10:33:10.570Z,58.83
2022-08-25T10:36:00.131Z,58.47
2022-08-25T10:38:48.568Z,57.89
2022-08-25T10:41:36.233Z,56.17
2022-08-25T10:44:04.273Z,56.37
2022-08-25T10:46:47.625Z,54.98
2022-08-25T10:49:36.187Z,54.30
2022-08-25T10:52:08.219Z,54.40
2022-08-25T10:55:00.834Z,54.84
2022-08-25T10:57:36.259Z,55.21
2022-08-25T11:00:14.155Z,56.23
2022-08-25T11:02:48.271Z,55.81
2022-08-25T11:05:24.611Z,53.88
2022-08-25T11:07:55.753Z,52.82
2022-08-25T11:10:26.881Z,53.68
2022-08-25T11:13:02.518Z,52.45
2022-08-25T11:15:37.084Z,53.73
2022-08-25T11:18:14.981Z,53.91
2022-08-25T11:20:50.317Z,52.78
2022-08-25T11:23:22.027Z,50.77
2022-08-25T11:25:59.931Z,48.56
2022-08-25T11:28:39.741Z,50.31
2022-08-25T11:31:08.851Z,51.70
2022-08-25T11:33:36.791Z,50.98
2022-08-25T11:36:30.771Z,52.37
2022-08-25T11:39:16.993Z,51.82
2022-08-25T11:42:21.686Z,51.07
2022-08-25T11:45:08.935Z,51.67
2022-08-25T11:48:00.773Z,52.59
2022-08-25T11:50:35.588Z,51.84
2022-08-25T11:53:26.651Z,52.05
2022-08-25T11:56:04.385Z,50.74
2022-08-25T11:58:34.651Z,52.96
2022-08-25T12:01:02.851Z,53.66
2022-08-25T12:03:34.132Z,53.55
2022-08-25T12:06:15.317Z,55.17
2022-08-25T12:08:57.630Z,54.57
2022-08-25T12:11:49.276Z,53.95
2022-08-25T12:14:16.842Z,53.05
2022-08-25T12:16:57.336Z,52.37
2022-08-25T12:19:28.640Z,53.54
2022-08-25T12:21:59.178Z,54.25
2022-08-25T12:24:48.336Z,54.34
2022-08-25T12:27:34.141Z,54.54
2022-08-25T12:30:40.174Z,53.56
2022-08-25T12:33:33.048Z,51.51
2022-08-25T12:36:02.474Z,50.52
2022-08-25T12:38:50.922Z,49.72
2022-08-25T12:41:33.751Z,48.92
2022-08-25T12:44:35.663Z,49.54
2022-08-25T12:47:27.354Z,50.70
2022-08-25T12:50:33.481Z,50.49
2022-08-25T12:53:39.936Z,48.75
2022-08-25T12:56:20.562Z,48.23
2022-08-25T12:59:13.481Z,50.71
2022-08-25T13:02:03.208Z,51.09
2022-08-25T13:04:41.644Z,51.17
2022-08-25T13:07:15.647Z,50.71
2022-08-25T13:09:49.895Z,50.71
2022-08-25T13:12:32.547Z,50.70
2022-08-25T13:15:01.321Z,49.13
2022-08-25T13:17:33.928Z,48.28
2022-08-25T13:20:15.135Z,47.18
2022-08-25T13:22:45.190Z,46.29
2022-08-25T13:25:23.061Z,45.06
2022-08-25T13:27:52.153Z,44.06
2022-08-25T13:30:33.576Z,43.75
2022-08-25T13:33:01.100Z,43.95
2022-08-25T13:35:38.405Z,45.19
2022-08-25T13:38:15.779Z,45.65
2022-08-25T13:40:44.330Z,46.17
2022-08-25T13:43:13.226Z,46.57
2022-08-25T13:45:45.505Z,47.48
2022-08-25T13:48:23.156Z,48.19
2022-08-25T13:50:53.690Z,48.99
2022-08-25T13:53:25.613Z,47.01
2022-08-25T13:56:00.801Z,47.06
2022-08-25T13:58:44.293Z,46.90
2022-08-25T14:01:22.420Z,45.93
2022-08-25T14:04:51.664Z,45.54
2022-08-25T14:07:20.933Z,47.12
2022-08-25T14:10:06.770Z,47.93
2022-08-25T14:12:44.931Z,48.35
2022-08-25T14:15:15.746Z,48.04
2022-08-25T14:18:00.910Z,48.73
2022-08-25T14:20:29.825Z,48.43
2022-08-25T14:22:59.291Z,47.05
2022-08-25T14:25:27.938Z,46.38
2022-08-25T14:28:09.140Z,46.42
2022-08-25T14:30:43.393Z,45.87
2022-08-25T14:33:10.906Z,45.50
2022-08-25T14:35:38.259Z,46.05
2022-08-25T14:38:10.871Z,46.08
2022-08-25T14:40:39.658Z,45.46
2022-08-25T14:43:09.606Z,45.32
2022-08-25T14:45:39.953Z,45.57
2022-08-25T14:48:10.623Z,45.66
2022-08-25T14:50:41.151Z,44.56
2022-08-25T14:53:10.645Z,45.29
2022-08-25T14:55:38.943Z,45.36
2022-08-25T14:58:07.914Z,44.34
2022-08-25T15:00:37.576Z,45.16
2022-08-25T15:03:05.172Z,45.69
2022-08-25T15:05:32.542Z,46.05
2022-08-25T15:08:18.420Z,46.32
2022-08-25T15:10:46.779Z,46.32
2022-08-25T15:13:14.821Z,45.93
2022-08-25T15:15:52.762Z,45.78
2022-08-25T15:18:21.792Z,46.22
2022-08-25T15:20:49.986Z,45.48
2022-08-25T15:23:18.713Z,45.79
2022-08-25T15:25:46.908Z,46.59
2022-08-25T15:28:17.128Z,46.62
2022-08-25T15:30:45.937Z,46.46
2022-08-25T15:33:14.288Z,47.26
2022-08-25T15:35:41.834Z,47.21
2022-08-25T15:38:10.851Z,47.07
2022-08-25T15:40:39.191Z,46.74
2022-08-25T15:43:06.947Z,47.53
2022-08-25T15:45:36.361Z,47.47
2022-08-25T15:48:06.828Z,47.15
2022-08-25T15:50:37.326Z,46.85
2022-08-25T15:53:07.041Z,47.30
2022-08-25T15:55:40.938Z,47.70
2022-08-25T15:58:08.885Z,47.85
2022-08-25T16:00:37.882Z,48.15
2022-08-25T16:03:08.072Z,48.03
2022-08-25T16:05:39.768Z,48.08
2022-08-25T16:08:19.590Z,48.60
2022-08-25T16:10:47.569Z,47.60
2022-08-25T16:13:14.872Z,48.08
2022-08-25T16:15:46.849Z,47.79
2022-08-25T16:18:21.516Z,48.47
2022-08-25T16:20:49.218Z,48.48
2022-08-25T16:23:17.611Z,48.26
2022-08-25T16:25:46.374Z,48.36
2022-08-25T16:28:14.802Z,48.66
2022-08-25T16:30:52.542Z,49.14
2022-08-25T16:33:20.667Z,49.56
2022-08-25T16:35:49.301Z,49.71
2022-08-25T16:38:16.926Z,49.44
2022-08-25T16:40:46.131Z,50.63
2022-08-25T16:43:13.615Z,50.74
2022-08-25T16:45:41.109Z,51.68
2022-08-25T16:48:08.984Z,52.26
2022-08-25T16:50:39.258Z,53.01
2022-08-25T16:53:25.239Z,52.98
2022-08-25T16:56:01.669Z,53.85
2022-08-25T16:58:30.181Z,53.54
2022-08-25T17:01:04.893Z,53.75
2022-08-25T17:03:34.953Z,53.85
2022-08-25T17:06:02.441Z,54.46
2022-08-25T17:08:30.734Z,54.66
2022-08-25T17:11:10.600Z,54.99
2022-08-25T17:13:39.763Z,54.89
2022-08-25T17:16:12.799Z,54.86
2022-08-25T17:18:42.729Z,55.07
2022-08-25T17:21:17.043Z,55.29
2022-08-25T17:23:51.691Z,55.92
2022-08-25T17:26:19.352Z,56.30
2022-08-25T17:28:46.926Z,56.72
2022-08-25T17:31:14.849Z,56.33
2022-08-25T17:33:42.354Z,56.77
2022-08-25T17:36:12.149Z,57.42
2022-08-25T17:38:44.058Z,57.69
2022-08-25T17:41:11.687Z,57.60
2022-08-25T17:43:41.235Z,58.08
2022-08-25T17:46:08.990Z,58.64
2022-08-25T17:48:38.091Z,58.44
2022-08-25T17:51:11.709Z,59.40
2022-08-25T17:53:39.157Z,59.39
2022-08-25T17:56:08.923Z,59.83
2022-08-25T17:58:36.585Z,59.64
2022-08-25T18:01:04.498Z,59.51
2022-08-25T18:03:32.915Z,60.37
2022-08-25T18:06:00.645Z,60.62
2022-08-25T18:08:35.068Z,60.97
2022-08-25T18:11:04.839Z,60.83
2022-08-25T18:13:32.254Z,60.61
2022-08-25T18:16:00.390Z,60.86
2022-08-25T18:18:27.918Z,61.53
2022-08-25T18:20:55.305Z,62.17
2022-08-25T18:23:22.690Z,62.59
2022-08-25T18:25:50.353Z,63.11
2022-08-25T18:28:17.735Z,62.94
2022-08-25T18:30:45.998Z,63.37
2022-08-25T18:33:13.814Z,63.60
2022-08-25T18:35:41.320Z,63.52
2022-08-25T18:38:27.131Z,63.43
2022-08-25T18:40:58.945Z,63.51
2022-08-25T18:43:26.552Z,63.45
2022-08-25T18:45:55.092Z,62.83
2022-08-25T18:48:26.519Z,62.50
2022-08-25T18:50:54.373Z,63.48
2022-08-25T18:53:36.680Z,64.00
2022-08-25T18:56:05.841Z,64.09
2022-08-25T18:58:33.383Z,64.66
2022-08-25T19:01:01.702Z,64.68
2022-08-25T19:03:29.070Z,64.70
2022-08-25T19:05:57.872Z,64.75
2022-08-25T19:08:25.300Z,64.72
2022-08-25T19:10:53.692Z,64.77
2022-08-25T19:13:22.778Z,64.56
2022-08-25T19:15:50.859Z,64.35
2022-08-25T19:18:19.361Z,64.06
2022-08-25T19:20:53.835Z,64.44
2022-08-25T19:23:21.465Z,64.65
2022-08-25T19:25:49.019Z,63.77
2022-08-25T19:28:17.028Z,64.07
2022-08-25T19:30:50.531Z,64.44
2022-08-25T19:33:31.377Z,64.47
2022-08-25T19:36:08.581Z,63.96
2022-08-25T19:38:36.740Z,64.21
2022-08-25T19:41:09.387Z,64.54
2022-08-25T19:43:56.609Z,64.68
2022-08-25T19:46:35.394Z,64.55
2022-08-25T19:49:16.452Z,64.71
2022-08-25T19:51:47.533Z,65.15
2022-08-25T19:54:21.424Z,65.24
2022-08-25T19:56:54.231Z,65.70
2022-08-25T19:59:24.808Z,66.16
2022-08-25T20:01:52.376Z,65.98
2022-08-25T20:04:20.022Z,66.34
2022-08-25T20:06:48.439Z,66.50
2022-08-25T20:09:35.623Z,65.95
2022-08-25T20:12:06.273Z,66.25
2022-08-25T20:14:34.168Z,67.07
2022-08-25T20:17:03.091Z,67.24
2022-08-25T20:19:31.458Z,67.45
2022-08-25T20:21:59.589Z,67.03
2022-08-25T20:24:46.408Z,67.48
2022-08-25T20:27:13.834Z,67.97
2022-08-25T20:29:41.214Z,67.13
2022-08-25T20:32:12.207Z,67.34
2022-08-25T20:34:41.500Z,67.20
2022-08-25T20:37:09.279Z,67.14
2022-08-25T20:39:36.872Z,67.21
2022-08-25T20:42:04.672Z,67.73
2022-08-25T20:44:39.937Z,68.44
2022-08-25T20:47:13.037Z,68.90
2022-08-25T20:49:40.810Z,68.85
2022-08-25T20:52:09.358Z,68.94
2022-08-25T20:54:37.068Z,68.98
2022-08-25T20:57:04.937Z,68.92
2022-08-25T20:59:35.336Z,68.76
2022-08-25T21:02:02.923Z,69.39
2022-08-25T21:04:31.316Z,69.92
2022-08-25T21:07:00.346Z,70.57
2022-08-25T21:09:28.698Z,69.98
2022-08-25T21:11:56.991Z,69.54
2022-08-25T21:14:24.802Z,69.80
2022-08-25T21:16:53.805Z,69.53
2022-08-25T21:19:26.694Z,69.38
2022-08-25T21:21:59.637Z,69.41
2022-08-25T21:24:27.589Z,69.11
2022-08-25T21:26:56.150Z,69.15
2022-08-25T21:29:24.485Z,69.82
2022-08-25T21:31:51.803Z,69.97
2022-08-25T21:34:19.643Z,70.25
2022-08-25T21:36:48.527Z,70.66
2022-08-25T21:39:15.978Z,70.77
2022-08-25T21:41:45.792Z,69.96
2022-08-25T21:44:13.842Z,70.33
2022-08-25T21:46:41.601Z,70.44
2022-08-25T21:49:21.259Z,70.62
2022-08-25T21:51:51.033Z,69.98
2022-08-25T21:54:27.109Z,69.19
2022-08-25T21:57:03.541Z,69.78
2022-08-25T21:59:36.562Z,70.10
2022-08-25T22:02:05.940Z,70.56
2022-08-25T22:04:33.568Z,70.56
2022-08-25T22:07:01.220Z,70.51
2022-08-25T22:09:30.058Z,70.59
2022-08-25T22:11:57.622Z,70.01
2022-08-25T22:14:26.469Z,69.87
2022-08-25T22:16:54.890Z,70.07
2022-08-25T22:19:22.835Z,70.30
2022-08-25T22:21:51.190Z,70.36
2022-08-25T22:24:19.055Z,70.28
2022-08-25T22:26:47.552Z,70.59
2022-08-25T22:29:25.050Z,70.71
2022-08-25T22:31:59.786Z,71.03
2022-08-25T22:34:34.570Z,70.46
2022-08-25T22:37:03.485Z,70.79
2022-08-25T22:39:31.470Z,70.37
2022-08-25T22:41:59.985Z,70.30
2022-08-25T22:44:27.499Z,70.59
2022-08-25T22:46:55.267Z,70.70
2022-08-25T22:49:23.803Z,71.08
2022-08-25T22:51:53.791Z,71.24
2022-08-25T22:54:23.065Z,71.18
2022-08-25T22:56:52.700Z,71.33
2022-08-25T22:59:20.069Z,71.69
2022-08-25T23:01:49.772Z,70.96
2022-08-25T23:04:17.681Z,70.63
2022-08-25T23:06:47.208Z,70.68
2022-08-25T23:09:14.652Z,70.78
2022-08-25T23:11:43.170Z,70.97
2022-08-25T23:14:11.268Z,71.39
2022-08-25T23:16:39.737Z,71.52
2022-08-25T23:19:14.014Z,71.63
2022-08-25T23:22:01.299Z,71.39
2022-08-25T23:24:30.660Z,71.52
2022-08-25T23:26:59.366Z,71.51
2022-08-25T23:29:27.902Z,71.30
2022-08-25T23:31:55.625Z,71.36
2022-08-25T23:34:23.458Z,71.56
2022-08-25T23:36:51.270Z,71.73
2022-08-25T23:39:18.809Z,71.93
2022-08-25T23:41:50.110Z,72.07
2022-08-25T23:44:18.681Z,72.42
2022-08-25T23:46:47.165Z,72.33
2022-08-25T23:49:18.437Z,72.69
2022-08-25T23:51:50.353Z,72.85
2022-08-25T23:54:19.895Z,72.05
2022-08-25T23:56:52.480Z,71.96
2022-08-25T23:59:24.424Z,72.25
